sensor_id;sensor_type;location;lat;lon;timestamp;temperature;humidity
46608;DHT22;32330;51.936;7.184;2024-03-29T00:00:05;8.10;99.90
46608;DHT22;32330;51.936;7.184;2024-03-29T00:02:38;8.10;99.90
46608;DHT22;32330;51.936;7.184;2024-03-29T00:05:05;8.10;1.00
46608;DHT22;32330;51.936;7.184;2024-03-29T00:07:31;8.00;1.00
46608;DHT22;32330;51.936;7.184;2024-03-29T00:09:57;8.00;1.00
46608;DHT22;32330;51.936;7.184;2024-03-29T00:12:24;8.00;1.00
46608;DHT22;32330;51.936;7.184;2024-03-29T00:14:51;8.10;99.90
46608;DHT22;32330;51.936;7.184;2024-03-29T00:17:17;8.00;99.90
46608;DHT22;32330;51.936;7.184;2024-03-29T00:19:43;8.00;1.00
46608;DHT22;32330;51.936;7.184;2024-03-29T00:22:09;7.90;1.00
46608;DHT22;32330;51.936;7.184;2024-03-29T00:24:35;8.00;1.00
46608;DHT22;32330;51.936;7.184;2024-03-29T00:27:02;8.00;1.00
46608;DHT22;32330;51.936;7.184;2024-03-29T00:29:29;7.90;1.00
46608;DHT22;32330;51.936;7.184;2024-03-29T00:31:55;7.90;1.00
46608;DHT22;32330;51.936;7.184;2024-03-29T00:34:21;7.90;1.00
46608;DHT22;32330;51.936;7.184;2024-03-29T00:36:48;7.90;1.00
46608;DHT22;32330;51.936;7.184;2024-03-29T00:39:14;7.90;1.00
46608;DHT22;32330;51.936;7.184;2024-03-29T00:41:40;7.90;1.00
46608;DHT22;32330;51.936;7.184;2024-03-29T00:44:06;7.90;1.00
46608;DHT22;32330;51.936;7.184;2024-03-29T00:46:34;7.90;1.00
46608;DHT22;32330;51.936;7.184;2024-03-29T00:49:00;7.80;1.00
46608;DHT22;32330;51.936;7.184;2024-03-29T00:51:26;7.80;1.00
46608;DHT22;32330;51.936;7.184;2024-03-29T00:53:52;7.80;1.00
46608;DHT22;32330;51.936;7.184;2024-03-29T00:56:18;7.70;1.00
46608;DHT22;32330;51.936;7.184;2024-03-29T00:58:44;7.70;1.00
46608;DHT22;32330;51.936;7.184;2024-03-29T01:01:10;7.70;1.00
46608;DHT22;32330;51.936;7.184;2024-03-29T01:03:38;7.70;1.00
46608;DHT22;32330;51.936;7.184;2024-03-29T01:06:04;7.70;1.00
46608;DHT22;32330;51.936;7.184;2024-03-29T01:08:30;7.70;1.00
46608;DHT22;32330;51.936;7.184;2024-03-29T01:10:56;7.70;1.00
46608;DHT22;32330;51.936;7.184;2024-03-29T01:13:23;7.80;1.00
46608;DHT22;32330;51.936;7.184;2024-03-29T01:15:49;7.70;1.00
46608;DHT22;32330;51.936;7.184;2024-03-29T01:18:15;7.70;1.00
46608;DHT22;32330;51.936;7.184;2024-03-29T01:20:42;7.70;1.00
46608;DHT22;32330;51.936;7.184;2024-03-29T01:23:08;7.70;1.00
46608;DHT22;32330;51.936;7.184;2024-03-29T01:25:34;7.60;1.00
46608;DHT22;32330;51.936;7.184;2024-03-29T01:28:01;7.70;1.00
46608;DHT22;32330;51.936;7.184;2024-03-29T01:30:27;7.70;1.00
46608;DHT22;32330;51.936;7.184;2024-03-29T01:32:53;7.70;1.00
46608;DHT22;32330;51.936;7.184;2024-03-29T01:35:19;7.70;1.00
46608;DHT22;32330;51.936;7.184;2024-03-29T01:37:46;7.70;1.00
46608;DHT22;32330;51.936;7.184;2024-03-29T01:40:13;7.70;1.00
46608;DHT22;32330;51.936;7.184;2024-03-29T01:42:39;7.70;1.00
46608;DHT22;32330;51.936;7.184;2024-03-29T01:45:07;7.70;1.00
46608;DHT22;32330;51.936;7.184;2024-03-29T01:47:35;7.70;1.00
46608;DHT22;32330;51.936;7.184;2024-03-29T01:50:02;7.70;99.90
46608;DHT22;32330;51.936;7.184;2024-03-29T01:52:30;7.70;1.00
46608;DHT22;32330;51.936;7.184;2024-03-29T01:54:58;7.70;1.00
46608;DHT22;32330;51.936;7.184;2024-03-29T01:57:26;7.70;1.00
46608;DHT22;32330;51.936;7.184;2024-03-29T01:59:53;7.60;1.00
46608;DHT22;32330;51.936;7.184;2024-03-29T02:02:20;7.70;1.00
46608;DHT22;32330;51.936;7.184;2024-03-29T02:04:49;7.60;1.00
46608;DHT22;32330;51.936;7.184;2024-03-29T02:07:17;7.60;1.00
46608;DHT22;32330;51.936;7.184;2024-03-29T02:09:43;7.60;1.00
46608;DHT22;32330;51.936;7.184;2024-03-29T02:12:12;7.60;1.00
46608;DHT22;32330;51.936;7.184;2024-03-29T02:14:39;7.60;1.00
46608;DHT22;32330;51.936;7.184;2024-03-29T02:17:08;7.50;1.00
46608;DHT22;32330;51.936;7.184;2024-03-29T02:19:34;7.60;1.00
46608;DHT22;32330;51.936;7.184;2024-03-29T02:22:01;7.60;1.00
46608;DHT22;32330;51.936;7.184;2024-03-29T02:24:33;7.70;1.00
46608;DHT22;32330;51.936;7.184;2024-03-29T02:27:01;7.70;1.00
46608;DHT22;32330;51.936;7.184;2024-03-29T02:29:30;7.70;1.00
46608;DHT22;32330;51.936;7.184;2024-03-29T02:31:57;7.70;1.00
46608;DHT22;32330;51.936;7.184;2024-03-29T02:34:25;7.60;1.00
46608;DHT22;32330;51.936;7.184;2024-03-29T02:36:52;7.70;1.00
46608;DHT22;32330;51.936;7.184;2024-03-29T02:39:19;7.70;1.00
46608;DHT22;32330;51.936;7.184;2024-03-29T02:41:48;7.80;99.90
46608;DHT22;32330;51.936;7.184;2024-03-29T02:44:15;7.90;99.90
46608;DHT22;32330;51.936;7.184;2024-03-29T02:46:42;7.90;99.90
46608;DHT22;32330;51.936;7.184;2024-03-29T02:49:10;7.90;99.90
46608;DHT22;32330;51.936;7.184;2024-03-29T02:51:36;8.00;99.90
46608;DHT22;32330;51.936;7.184;2024-03-29T02:54:03;8.20;99.90
46608;DHT22;32330;51.936;7.184;2024-03-29T02:56:29;8.20;99.90
46608;DHT22;32330;51.936;7.184;2024-03-29T02:58:58;8.30;99.90
46608;DHT22;32330;51.936;7.184;2024-03-29T03:01:25;8.30;99.90
46608;DHT22;32330;51.936;7.184;2024-03-29T03:03:51;8.30;99.90
46608;DHT22;32330;51.936;7.184;2024-03-29T03:06:18;8.40;99.90
46608;DHT22;32330;51.936;7.184;2024-03-29T03:08:44;8.40;99.90
46608;DHT22;32330;51.936;7.184;2024-03-29T03:11:29;8.40;99.90
46608;DHT22;32330;51.936;7.184;2024-03-29T03:13:57;8.40;99.90
46608;DHT22;32330;51.936;7.184;2024-03-29T03:16:24;8.40;99.90
46608;DHT22;32330;51.936;7.184;2024-03-29T03:18:51;8.30;99.90
46608;DHT22;32330;51.936;7.184;2024-03-29T03:21:17;8.30;99.90
46608;DHT22;32330;51.936;7.184;2024-03-29T03:23:44;8.30;99.90
46608;DHT22;32330;51.936;7.184;2024-03-29T03:26:11;8.30;99.90
46608;DHT22;32330;51.936;7.184;2024-03-29T03:28:37;8.30;99.90
46608;DHT22;32330;51.936;7.184;2024-03-29T03:31:06;8.30;99.90
46608;DHT22;32330;51.936;7.184;2024-03-29T03:33:33;8.30;99.90
46608;DHT22;32330;51.936;7.184;2024-03-29T03:36:00;8.30;99.90
46608;DHT22;32330;51.936;7.184;2024-03-29T03:38:26;8.30;99.90
46608;DHT22;32330;51.936;7.184;2024-03-29T03:40:53;8.30;99.90
46608;DHT22;32330;51.936;7.184;2024-03-29T03:43:19;8.40;99.90
46608;DHT22;32330;51.936;7.184;2024-03-29T03:45:46;8.40;99.90
46608;DHT22;32330;51.936;7.184;2024-03-29T03:48:15;8.50;99.90
46608;DHT22;32330;51.936;7.184;2024-03-29T03:50:42;8.60;99.90
46608;DHT22;32330;51.936;7.184;2024-03-29T03:53:08;8.50;99.90
46608;DHT22;32330;51.936;7.184;2024-03-29T03:55:36;8.50;99.90
46608;DHT22;32330;51.936;7.184;2024-03-29T03:58:02;8.50;99.90
46608;DHT22;32330;51.936;7.184;2024-03-29T04:00:29;8.60;99.90
46608;DHT22;32330;51.936;7.184;2024-03-29T04:02:55;8.60;99.90
46608;DHT22;32330;51.936;7.184;2024-03-29T04:05:24;8.70;99.90
46608;DHT22;32330;51.936;7.184;2024-03-29T04:07:52;8.60;99.90
46608;DHT22;32330;51.936;7.184;2024-03-29T04:10:19;8.70;99.90
46608;DHT22;32330;51.936;7.184;2024-03-29T04:12:45;8.70;99.90
46608;DHT22;32330;51.936;7.184;2024-03-29T04:15:12;8.70;1.00
46608;DHT22;32330;51.936;7.184;2024-03-29T04:17:38;8.70;99.90
46608;DHT22;32330;51.936;7.184;2024-03-29T04:20:06;8.70;99.90
46608;DHT22;32330;51.936;7.184;2024-03-29T04:22:34;8.70;1.00
46608;DHT22;32330;51.936;7.184;2024-03-29T04:25:01;8.60;1.00
46608;DHT22;32330;51.936;7.184;2024-03-29T04:27:27;8.60;1.00
46608;DHT22;32330;51.936;7.184;2024-03-29T04:29:55;8.60;1.00
46608;DHT22;32330;51.936;7.184;2024-03-29T04:32:21;8.60;1.00
46608;DHT22;32330;51.936;7.184;2024-03-29T04:34:49;8.70;1.00
46608;DHT22;32330;51.936;7.184;2024-03-29T04:37:15;8.70;1.00
46608;DHT22;32330;51.936;7.184;2024-03-29T04:39:44;8.60;1.00
46608;DHT22;32330;51.936;7.184;2024-03-29T04:42:12;8.60;1.00
46608;DHT22;32330;51.936;7.184;2024-03-29T04:44:41;8.60;1.00
46608;DHT22;32330;51.936;7.184;2024-03-29T04:47:08;8.60;1.00
46608;DHT22;32330;51.936;7.184;2024-03-29T04:49:35;8.60;3.80
46608;DHT22;32330;51.936;7.184;2024-03-29T04:52:02;8.60;18.60
46608;DHT22;32330;51.936;7.184;2024-03-29T04:54:30;8.50;20.90
46608;DHT22;32330;51.936;7.184;2024-03-29T04:56:59;8.50;23.90
46608;DHT22;32330;51.936;7.184;2024-03-29T04:59:27;8.40;25.50
46608;DHT22;32330;51.936;7.184;2024-03-29T05:01:54;8.40;33.10
46608;DHT22;32330;51.936;7.184;2024-03-29T05:04:22;8.40;40.30
46608;DHT22;32330;51.936;7.184;2024-03-29T05:06:52;8.40;45.60
46608;DHT22;32330;51.936;7.184;2024-03-29T05:09:20;8.40;53.10
46608;DHT22;32330;51.936;7.184;2024-03-29T05:11:47;8.30;68.40
46608;DHT22;32330;51.936;7.184;2024-03-29T05:14:16;8.30;78.50
46608;DHT22;32330;51.936;7.184;2024-03-29T05:16:44;8.30;82.10
46608;DHT22;32330;51.936;7.184;2024-03-29T05:19:11;8.20;90.60
46608;DHT22;32330;51.936;7.184;2024-03-29T05:21:38;8.20;94.20
46608;DHT22;32330;51.936;7.184;2024-03-29T05:24:06;8.10;96.40
46608;DHT22;32330;51.936;7.184;2024-03-29T05:26:33;8.10;98.20
46608;DHT22;32330;51.936;7.184;2024-03-29T05:29:00;8.10;99.90
46608;DHT22;32330;51.936;7.184;2024-03-29T05:31:31;8.10;99.90
46608;DHT22;32330;51.936;7.184;2024-03-29T05:33:58;8.10;99.90
46608;DHT22;32330;51.936;7.184;2024-03-29T05:36:27;8.00;99.90
46608;DHT22;32330;51.936;7.184;2024-03-29T05:38:54;8.00;99.90
46608;DHT22;32330;51.936;7.184;2024-03-29T05:41:22;8.00;99.90
46608;DHT22;32330;51.936;7.184;2024-03-29T05:43:49;8.00;99.90
46608;DHT22;32330;51.936;7.184;2024-03-29T05:46:17;8.00;99.90
46608;DHT22;32330;51.936;7.184;2024-03-29T05:48:45;8.00;99.90
46608;DHT22;32330;51.936;7.184;2024-03-29T05:51:13;8.00;99.90
46608;DHT22;32330;51.936;7.184;2024-03-29T05:53:40;8.00;99.90
46608;DHT22;32330;51.936;7.184;2024-03-29T05:56:07;8.00;99.90
46608;DHT22;32330;51.936;7.184;2024-03-29T05:58:34;8.00;99.90
46608;DHT22;32330;51.936;7.184;2024-03-29T06:01:01;8.00;99.90
46608;DHT22;32330;51.936;7.184;2024-03-29T06:03:29;8.00;99.90
46608;DHT22;32330;51.936;7.184;2024-03-29T06:05:57;8.00;99.90
46608;DHT22;32330;51.936;7.184;2024-03-29T06:08:25;7.90;99.90
46608;DHT22;32330;51.936;7.184;2024-03-29T06:10:53;8.00;99.90
46608;DHT22;32330;51.936;7.184;2024-03-29T06:13:20;8.00;99.90
46608;DHT22;32330;51.936;7.184;2024-03-29T06:16:16;8.00;99.90
46608;DHT22;32330;51.936;7.184;2024-03-29T06:19:01;8.00;99.90
46608;DHT22;32330;51.936;7.184;2024-03-29T06:21:30;8.00;99.90
46608;DHT22;32330;51.936;7.184;2024-03-29T06:24:05;8.00;99.90
46608;DHT22;32330;51.936;7.184;2024-03-29T06:26:32;8.00;99.90
46608;DHT22;32330;51.936;7.184;2024-03-29T06:29:00;8.10;99.90
46608;DHT22;32330;51.936;7.184;2024-03-29T06:31:27;8.10;99.90
46608;DHT22;32330;51.936;7.184;2024-03-29T06:33:54;8.00;99.90
46608;DHT22;32330;51.936;7.184;2024-03-29T06:36:22;8.00;99.90
46608;DHT22;32330;51.936;7.184;2024-03-29T06:38:50;8.00;99.90
46608;DHT22;32330;51.936;7.184;2024-03-29T06:41:17;8.10;99.90
46608;DHT22;32330;51.936;7.184;2024-03-29T06:43:45;8.10;99.90
46608;DHT22;32330;51.936;7.184;2024-03-29T06:46:12;8.20;99.90
46608;DHT22;32330;51.936;7.184;2024-03-29T06:48:40;8.20;99.90
46608;DHT22;32330;51.936;7.184;2024-03-29T06:51:07;8.30;99.90
46608;DHT22;32330;51.936;7.184;2024-03-29T06:53:34;8.30;99.90
46608;DHT22;32330;51.936;7.184;2024-03-29T06:56:04;8.30;99.90
46608;DHT22;32330;51.936;7.184;2024-03-29T06:58:31;8.30;99.90
46608;DHT22;32330;51.936;7.184;2024-03-29T07:00:58;8.30;99.90
46608;DHT22;32330;51.936;7.184;2024-03-29T07:03:25;8.40;99.90
46608;DHT22;32330;51.936;7.184;2024-03-29T07:05:53;8.40;99.90
46608;DHT22;32330;51.936;7.184;2024-03-29T07:08:20;8.40;99.90
46608;DHT22;32330;51.936;7.184;2024-03-29T07:10:47;8.40;99.90
46608;DHT22;32330;51.936;7.184;2024-03-29T07:13:15;8.50;99.90
46608;DHT22;32330;51.936;7.184;2024-03-29T07:15:50;8.50;99.90
46608;DHT22;32330;51.936;7.184;2024-03-29T07:18:18;8.50;99.90
46608;DHT22;32330;51.936;7.184;2024-03-29T07:20:45;8.60;99.90
46608;DHT22;32330;51.936;7.184;2024-03-29T07:23:12;8.60;99.90
46608;DHT22;32330;51.936;7.184;2024-03-29T07:25:40;8.60;99.90
46608;DHT22;32330;51.936;7.184;2024-03-29T07:28:07;8.70;99.90
46608;DHT22;32330;51.936;7.184;2024-03-29T07:30:37;8.80;99.90
46608;DHT22;32330;51.936;7.184;2024-03-29T07:33:05;8.80;99.90
46608;DHT22;32330;51.936;7.184;2024-03-29T07:35:32;8.90;99.90
46608;DHT22;32330;51.936;7.184;2024-03-29T07:37:59;9.10;99.90
46608;DHT22;32330;51.936;7.184;2024-03-29T07:40:26;9.10;99.90
46608;DHT22;32330;51.936;7.184;2024-03-29T07:42:53;9.10;99.90
46608;DHT22;32330;51.936;7.184;2024-03-29T07:45:21;9.00;99.40
46608;DHT22;32330;51.936;7.184;2024-03-29T07:47:50;9.00;99.30
46608;DHT22;32330;51.936;7.184;2024-03-29T07:50:18;9.10;98.80
46608;DHT22;32330;51.936;7.184;2024-03-29T07:52:45;9.20;98.90
46608;DHT22;32330;51.936;7.184;2024-03-29T07:55:13;9.20;97.30
46608;DHT22;32330;51.936;7.184;2024-03-29T07:57:43;9.30;97.90
46608;DHT22;32330;51.936;7.184;2024-03-29T08:00:13;9.30;96.60
46608;DHT22;32330;51.936;7.184;2024-03-29T08:02:41;9.30;96.80
46608;DHT22;32330;51.936;7.184;2024-03-29T08:05:22;9.30;97.40
46608;DHT22;32330;51.936;7.184;2024-03-29T08:07:49;9.30;96.50
46608;DHT22;32330;51.936;7.184;2024-03-29T08:10:16;9.40;96.50
46608;DHT22;32330;51.936;7.184;2024-03-29T08:12:44;9.40;96.30
46608;DHT22;32330;51.936;7.184;2024-03-29T08:15:11;9.50;97.00
46608;DHT22;32330;51.936;7.184;2024-03-29T08:17:38;9.60;94.10
46608;DHT22;32330;51.936;7.184;2024-03-29T08:20:06;9.70;91.90
46608;DHT22;32330;51.936;7.184;2024-03-29T08:22:35;9.90;92.10
46608;DHT22;32330;51.936;7.184;2024-03-29T08:25:03;10.10;90.20
46608;DHT22;32330;51.936;7.184;2024-03-29T08:27:30;10.20;88.10
46608;DHT22;32330;51.936;7.184;2024-03-29T08:29:57;10.30;88.00
46608;DHT22;32330;51.936;7.184;2024-03-29T08:32:24;10.30;87.60
46608;DHT22;32330;51.936;7.184;2024-03-29T08:34:51;10.30;84.60
46608;DHT22;32330;51.936;7.184;2024-03-29T08:37:18;10.20;84.30
46608;DHT22;32330;51.936;7.184;2024-03-29T08:39:47;10.10;88.00
46608;DHT22;32330;51.936;7.184;2024-03-29T08:42:14;10.30;85.80
46608;DHT22;32330;51.936;7.184;2024-03-29T08:44:42;10.50;87.50
46608;DHT22;32330;51.936;7.184;2024-03-29T08:47:10;10.60;85.60
46608;DHT22;32330;51.936;7.184;2024-03-29T08:49:37;10.60;84.80
46608;DHT22;32330;51.936;7.184;2024-03-29T08:52:05;10.70;85.30
46608;DHT22;32330;51.936;7.184;2024-03-29T08:54:32;10.80;83.40
46608;DHT22;32330;51.936;7.184;2024-03-29T08:57:01;10.90;81.00
46608;DHT22;32330;51.936;7.184;2024-03-29T08:59:29;10.90;80.90
46608;DHT22;32330;51.936;7.184;2024-03-29T09:02:04;11.20;83.50
46608;DHT22;32330;51.936;7.184;2024-03-29T09:04:33;11.20;76.00
46608;DHT22;32330;51.936;7.184;2024-03-29T09:07:04;11.40;82.80
46608;DHT22;32330;51.936;7.184;2024-03-29T09:10:19;11.40;73.40
46608;DHT22;32330;51.936;7.184;2024-03-29T09:12:53;11.50;75.60
46608;DHT22;32330;51.936;7.184;2024-03-29T09:15:23;11.40;71.90
46608;DHT22;32330;51.936;7.184;2024-03-29T09:17:57;11.50;76.10
46608;DHT22;32330;51.936;7.184;2024-03-29T09:20:36;11.40;73.30
46608;DHT22;32330;51.936;7.184;2024-03-29T09:23:04;11.50;74.20
46608;DHT22;32330;51.936;7.184;2024-03-29T09:25:31;11.50;74.50
46608;DHT22;32330;51.936;7.184;2024-03-29T09:28:00;11.60;76.10
46608;DHT22;32330;51.936;7.184;2024-03-29T09:30:27;11.70;74.60
46608;DHT22;32330;51.936;7.184;2024-03-29T09:32:54;11.70;71.60
46608;DHT22;32330;51.936;7.184;2024-03-29T09:35:20;11.60;70.90
46608;DHT22;32330;51.936;7.184;2024-03-29T09:37:47;11.50;72.00
46608;DHT22;32330;51.936;7.184;2024-03-29T09:40:15;11.60;75.10
46608;DHT22;32330;51.936;7.184;2024-03-29T09:42:44;11.50;73.60
46608;DHT22;32330;51.936;7.184;2024-03-29T09:45:14;11.60;71.10
46608;DHT22;32330;51.936;7.184;2024-03-29T09:47:42;11.60;71.10
46608;DHT22;32330;51.936;7.184;2024-03-29T09:50:10;11.60;72.40
46608;DHT22;32330;51.936;7.184;2024-03-29T09:52:39;11.50;71.00
46608;DHT22;32330;51.936;7.184;2024-03-29T09:55:08;11.50;75.00
46608;DHT22;32330;51.936;7.184;2024-03-29T09:57:36;11.60;79.10
46608;DHT22;32330;51.936;7.184;2024-03-29T10:00:04;11.60;77.80
46608;DHT22;32330;51.936;7.184;2024-03-29T10:02:33;11.50;79.00
46608;DHT22;32330;51.936;7.184;2024-03-29T10:05:03;11.50;81.60
46608;DHT22;32330;51.936;7.184;2024-03-29T10:07:33;11.40;83.90
46608;DHT22;32330;51.936;7.184;2024-03-29T10:10:02;11.50;85.60
46608;DHT22;32330;51.936;7.184;2024-03-29T10:12:29;11.50;86.80
46608;DHT22;32330;51.936;7.184;2024-03-29T10:14:59;11.60;88.10
46608;DHT22;32330;51.936;7.184;2024-03-29T10:17:35;11.50;84.90
46608;DHT22;32330;51.936;7.184;2024-03-29T10:20:04;11.60;88.80
46608;DHT22;32330;51.936;7.184;2024-03-29T10:22:36;11.50;88.90
46608;DHT22;32330;51.936;7.184;2024-03-29T10:25:03;11.50;86.70
46608;DHT22;32330;51.936;7.184;2024-03-29T10:27:30;11.60;92.30
46608;DHT22;32330;51.936;7.184;2024-03-29T10:29:58;11.70;90.40
46608;DHT22;32330;51.936;7.184;2024-03-29T10:32:25;11.70;90.20
46608;DHT22;32330;51.936;7.184;2024-03-29T10:34:54;11.80;88.60
46608;DHT22;32330;51.936;7.184;2024-03-29T10:37:21;11.80;86.50
46608;DHT22;32330;51.936;7.184;2024-03-29T10:39:52;11.90;87.60
46608;DHT22;32330;51.936;7.184;2024-03-29T10:42:20;12.00;88.70
46608;DHT22;32330;51.936;7.184;2024-03-29T10:44:49;11.90;87.40
46608;DHT22;32330;51.936;7.184;2024-03-29T10:47:18;11.90;84.60
46608;DHT22;32330;51.936;7.184;2024-03-29T10:49:50;11.90;84.30
46608;DHT22;32330;51.936;7.184;2024-03-29T10:52:19;11.90;83.90
46608;DHT22;32330;51.936;7.184;2024-03-29T10:54:48;12.00;87.70
46608;DHT22;32330;51.936;7.184;2024-03-29T10:57:22;12.20;87.00
46608;DHT22;32330;51.936;7.184;2024-03-29T11:00:00;12.30;83.20
46608;DHT22;32330;51.936;7.184;2024-03-29T11:02:39;12.50;85.00
46608;DHT22;32330;51.936;7.184;2024-03-29T11:05:12;12.60;77.10
46608;DHT22;32330;51.936;7.184;2024-03-29T11:07:43;12.80;74.90
46608;DHT22;32330;51.936;7.184;2024-03-29T11:10:14;12.80;67.50
46608;DHT22;32330;51.936;7.184;2024-03-29T11:12:50;12.90;64.30
46608;DHT22;32330;51.936;7.184;2024-03-29T11:15:27;13.10;54.40
46608;DHT22;32330;51.936;7.184;2024-03-29T11:17:55;13.20;49.90
46608;DHT22;32330;51.936;7.184;2024-03-29T11:24:38;13.50;33.40
46608;DHT22;32330;51.936;7.184;2024-03-29T11:27:11;13.70;19.70
46608;DHT22;32330;51.936;7.184;2024-03-29T11:29:42;13.50;1.00
46608;DHT22;32330;51.936;7.184;2024-03-29T11:32:12;13.60;3.60
46608;DHT22;32330;51.936;7.184;2024-03-29T11:34:45;13.50;3.80
46608;DHT22;32330;51.936;7.184;2024-03-29T11:37:19;13.40;1.00
46608;DHT22;32330;51.936;7.184;2024-03-29T11:39:50;13.50;1.00
46608;DHT22;32330;51.936;7.184;2024-03-29T11:42:18;13.80;1.00
46608;DHT22;32330;51.936;7.184;2024-03-29T11:44:54;13.80;1.00
46608;DHT22;32330;51.936;7.184;2024-03-29T11:47:22;13.70;1.00
46608;DHT22;32330;51.936;7.184;2024-03-29T11:50:08;13.70;1.00
46608;DHT22;32330;51.936;7.184;2024-03-29T11:52:37;13.70;1.00
46608;DHT22;32330;51.936;7.184;2024-03-29T11:55:07;13.70;1.00
46608;DHT22;32330;51.936;7.184;2024-03-29T11:57:40;13.70;1.00
46608;DHT22;32330;51.936;7.184;2024-03-29T12:00:11;13.60;1.00
46608;DHT22;32330;51.936;7.184;2024-03-29T12:02:40;13.70;1.00
46608;DHT22;32330;51.936;7.184;2024-03-29T12:05:11;13.80;1.00
46608;DHT22;32330;51.936;7.184;2024-03-29T12:07:43;13.80;1.00
46608;DHT22;32330;51.936;7.184;2024-03-29T12:10:17;13.80;1.00
46608;DHT22;32330;51.936;7.184;2024-03-29T12:12:45;13.80;1.00
46608;DHT22;32330;51.936;7.184;2024-03-29T12:15:14;13.90;1.00
46608;DHT22;32330;51.936;7.184;2024-03-29T12:17:42;14.10;1.00
46608;DHT22;32330;51.936;7.184;2024-03-29T12:20:14;14.10;1.00
46608;DHT22;32330;51.936;7.184;2024-03-29T12:22:43;14.20;1.00
46608;DHT22;32330;51.936;7.184;2024-03-29T12:25:10;14.30;1.00
46608;DHT22;32330;51.936;7.184;2024-03-29T12:27:39;14.30;1.00
46608;DHT22;32330;51.936;7.184;2024-03-29T12:30:11;14.40;1.00
46608;DHT22;32330;51.936;7.184;2024-03-29T12:32:39;14.50;1.00
46608;DHT22;32330;51.936;7.184;2024-03-29T12:35:08;14.20;1.00
46608;DHT22;32330;51.936;7.184;2024-03-29T12:37:37;14.30;1.00
46608;DHT22;32330;51.936;7.184;2024-03-29T12:40:06;14.40;1.00
46608;DHT22;32330;51.936;7.184;2024-03-29T12:42:40;14.20;1.00
46608;DHT22;32330;51.936;7.184;2024-03-29T12:45:08;14.10;1.00
46608;DHT22;32330;51.936;7.184;2024-03-29T12:47:36;14.20;1.00
46608;DHT22;32330;51.936;7.184;2024-03-29T12:50:12;14.40;1.00
46608;DHT22;32330;51.936;7.184;2024-03-29T12:52:41;14.40;1.00
46608;DHT22;32330;51.936;7.184;2024-03-29T12:55:09;14.40;1.00
46608;DHT22;32330;51.936;7.184;2024-03-29T12:57:37;14.40;1.00
46608;DHT22;32330;51.936;7.184;2024-03-29T13:00:19;14.40;1.00
46608;DHT22;32330;51.936;7.184;2024-03-29T13:02:49;14.50;1.00
46608;DHT22;32330;51.936;7.184;2024-03-29T13:05:17;14.40;1.00
46608;DHT22;32330;51.936;7.184;2024-03-29T13:07:45;14.50;1.00
46608;DHT22;32330;51.936;7.184;2024-03-29T13:10:12;14.50;1.00
46608;DHT22;32330;51.936;7.184;2024-03-29T13:12:41;14.50;1.00
46608;DHT22;32330;51.936;7.184;2024-03-29T13:15:19;14.50;1.00
46608;DHT22;32330;51.936;7.184;2024-03-29T13:17:47;14.70;1.00
46608;DHT22;32330;51.936;7.184;2024-03-29T13:20:17;14.80;1.00
46608;DHT22;32330;51.936;7.184;2024-03-29T13:22:46;14.80;1.00
46608;DHT22;32330;51.936;7.184;2024-03-29T13:25:15;14.70;1.00
46608;DHT22;32330;51.936;7.184;2024-03-29T13:27:46;14.70;1.00
46608;DHT22;32330;51.936;7.184;2024-03-29T13:30:16;14.70;1.00
46608;DHT22;32330;51.936;7.184;2024-03-29T13:32:47;14.70;99.90
46608;DHT22;32330;51.936;7.184;2024-03-29T13:35:15;14.70;99.90
46608;DHT22;32330;51.936;7.184;2024-03-29T13:37:43;14.90;1.00
46608;DHT22;32330;51.936;7.184;2024-03-29T13:40:12;14.90;99.90
46608;DHT22;32330;51.936;7.184;2024-03-29T13:42:40;14.70;99.90
46608;DHT22;32330;51.936;7.184;2024-03-29T13:45:24;14.60;99.90
46608;DHT22;32330;51.936;7.184;2024-03-29T13:47:53;14.80;1.00
46608;DHT22;32330;51.936;7.184;2024-03-29T13:50:21;14.90;1.00
46608;DHT22;32330;51.936;7.184;2024-03-29T13:52:48;15.10;1.00
46608;DHT22;32330;51.936;7.184;2024-03-29T13:55:17;15.30;99.90
46608;DHT22;32330;51.936;7.184;2024-03-29T13:57:44;15.30;99.90
46608;DHT22;32330;51.936;7.184;2024-03-29T14:00:12;15.40;99.90
46608;DHT22;32330;51.936;7.184;2024-03-29T14:02:44;15.30;99.90
46608;DHT22;32330;51.936;7.184;2024-03-29T14:05:11;15.30;99.90
46608;DHT22;32330;51.936;7.184;2024-03-29T14:07:39;15.50;99.90
46608;DHT22;32330;51.936;7.184;2024-03-29T14:10:07;15.80;99.90
46608;DHT22;32330;51.936;7.184;2024-03-29T14:12:34;15.80;99.90
46608;DHT22;32330;51.936;7.184;2024-03-29T14:15:03;15.80;99.90
46608;DHT22;32330;51.936;7.184;2024-03-29T14:17:31;16.10;99.90
46608;DHT22;32330;51.936;7.184;2024-03-29T14:20:00;16.20;99.90
46608;DHT22;32330;51.936;7.184;2024-03-29T14:22:27;16.40;99.90
46608;DHT22;32330;51.936;7.184;2024-03-29T14:24:57;16.50;99.90
46608;DHT22;32330;51.936;7.184;2024-03-29T14:27:24;16.40;99.90
46608;DHT22;32330;51.936;7.184;2024-03-29T14:29:52;16.40;99.90
46608;DHT22;32330;51.936;7.184;2024-03-29T14:32:20;16.80;99.90
46608;DHT22;32330;51.936;7.184;2024-03-29T14:34:48;17.00;99.90
46608;DHT22;32330;51.936;7.184;2024-03-29T14:37:16;17.00;99.90
46608;DHT22;32330;51.936;7.184;2024-03-29T14:39:43;16.90;99.90
46608;DHT22;32330;51.936;7.184;2024-03-29T14:42:11;16.70;1.00
46608;DHT22;32330;51.936;7.184;2024-03-29T14:44:43;16.70;99.90
46608;DHT22;32330;51.936;7.184;2024-03-29T14:47:10;16.60;99.90
46608;DHT22;32330;51.936;7.184;2024-03-29T14:49:38;16.50;1.00
46608;DHT22;32330;51.936;7.184;2024-03-29T14:52:06;16.30;1.00
46608;DHT22;32330;51.936;7.184;2024-03-29T14:54:35;16.40;99.90
46608;DHT22;32330;51.936;7.184;2024-03-29T14:57:03;16.30;99.90
46608;DHT22;32330;51.936;7.184;2024-03-29T14:59:31;16.30;99.90
46608;DHT22;32330;51.936;7.184;2024-03-29T15:02:00;16.40;24.40
46608;DHT22;32330;51.936;7.184;2024-03-29T15:04:27;16.30;99.90
46608;DHT22;32330;51.936;7.184;2024-03-29T15:06:54;16.20;12.60
46608;DHT22;32330;51.936;7.184;2024-03-29T15:09:22;16.20;99.90
46608;DHT22;32330;51.936;7.184;2024-03-29T15:11:50;16.20;99.90
46608;DHT22;32330;51.936;7.184;2024-03-29T15:14:19;16.10;46.70
46608;DHT22;32330;51.936;7.184;2024-03-29T15:16:46;16.10;1.00
46608;DHT22;32330;51.936;7.184;2024-03-29T15:19:13;16.00;99.90
46608;DHT22;32330;51.936;7.184;2024-03-29T15:21:40;16.20;99.90
46608;DHT22;32330;51.936;7.184;2024-03-29T15:24:09;16.20;57.40
46608;DHT22;32330;51.936;7.184;2024-03-29T15:26:36;16.20;99.90
46608;DHT22;32330;51.936;7.184;2024-03-29T15:29:05;16.30;99.90
46608;DHT22;32330;51.936;7.184;2024-03-29T15:31:34;16.30;99.90
46608;DHT22;32330;51.936;7.184;2024-03-29T15:34:02;16.40;99.90
46608;DHT22;32330;51.936;7.184;2024-03-29T15:36:31;16.30;1.70
46608;DHT22;32330;51.936;7.184;2024-03-29T15:38:58;16.20;99.90
46608;DHT22;32330;51.936;7.184;2024-03-29T15:41:32;16.00;1.00
46608;DHT22;32330;51.936;7.184;2024-03-29T15:43:59;16.00;99.90
46608;DHT22;32330;51.936;7.184;2024-03-29T15:46:29;15.90;54.40
46608;DHT22;32330;51.936;7.184;2024-03-29T15:48:57;15.90;99.90
46608;DHT22;32330;51.936;7.184;2024-03-29T15:51:24;15.80;99.90
46608;DHT22;32330;51.936;7.184;2024-03-29T15:53:53;15.70;99.90
46608;DHT22;32330;51.936;7.184;2024-03-29T15:56:26;15.70;99.90